Time;durP1;ratioP1;P1;durP2;ratioP2;P2;SDS_P1;SDS_P2;PMS_P1;PMS_P2;Temp;Humidity;BMP_temperature;BMP_pressure;BME280_temperature;BME280_humidity;BME280_pressure;Samples;Min_cycle;Max_cycle;Signal;HPM_P1;HPM_P2
2023/07/24 00:01:18;;;;;;;1.15;0.60;;;16.40;99.90;;;;;;5093971;28;20048;-93
2023/07/24 00:03:58;;;;;;;0.88;0.57;;;16.40;99.90;;;;;;5075886;28;20079;-93
2023/07/24 00:06:26;;;;;;;1.00;0.90;;;15.40;99.90;;;;;;5088082;28;20110;-93
2023/07/24 00:08:54;;;;;;;1.88;0.73;;;16.30;99.90;;;;;;5073780;28;20067;-93
2023/07/24 00:11:20;;;;;;;0.80;0.80;;;16.30;99.90;;;;;;5041232;28;20102;-93
2023/07/24 00:13:56;;;;;;;;;;;;;;;;;;;;;
2023/07/24 00:16:25;;;;;;;0.57;0.57;;;16.30;99.90;;;;;;5074012;28;20109;-93
2023/07/24 00:18:53;;;;;;;0.70;0.70;;;16.70;99.90;;;;;;5057924;28;20044;-93
2023/07/24 00:21:19;;;;;;;0.47;0.47;;;16.20;99.90;;;;;;5040255;28;20070;-93
2023/07/24 00:23:47;;;;;;;0.75;0.43;;;16.30;99.90;;;;;;5057131;28;20536;-93
2023/07/24 00:26:13;;;;;;;0.40;0.40;;;16.20;99.90;;;;;;5057012;28;20136;-93
2023/07/24 00:28:41;;;;;;;1.30;0.85;;;16.30;99.90;;;;;;5073077;28;20139;-92
2023/07/24 00:31:06;;;;;;;0.65;0.65;;;16.10;99.90;;;;;;5072708;28;20402;-93
2023/07/24 00:33:35;;;;;;;0.65;0.65;;;16.20;99.90;;;;;;5057219;28;20045;-93
2023/07/24 00:36:03;;;;;;;0.93;0.47;;;16.20;99.90;;;;;;5040149;28;20052;-95
2023/07/24 00:38:29;;;;;;;0.45;0.40;;;16.20;99.90;;;;;;5040997;28;20502;-93
2023/07/24 00:40:55;;;;;;;1.15;0.77;;;15.50;99.90;;;;;;5074064;28;20041;-93
2023/07/24 00:43:23;;;;;;;1.95;0.63;;;16.20;99.90;;;;;;5073515;28;20075;-93
2023/07/24 00:45:49;;;;;;;1.20;0.70;;;15.40;99.90;;;;;;5056552;28;20067;-93
2023/07/24 00:48:15;;;;;;;0.73;0.65;;;16.20;99.90;;;;;;5073240;28;20048;-93
2023/07/24 00:50:50;;;;;;;1.05;0.88;;;16.10;99.90;;;;;;5056804;28;20059;-93
2023/07/24 00:53:19;;;;;;;0.70;0.70;;;16.10;99.90;;;;;;5056431;28;20146;-93
2023/07/24 00:55:45;;;;;;;0.82;0.40;;;16.10;99.90;;;;;;5056661;28;20049;-93
2023/07/24 00:58:13;;;;;;;;;;;16.10;99.90;;;;;;5083730;28;20056;-93
2023/07/24 01:00:42;;;;;;;1.52;1.42;;;15.40;99.90;;;;;;5093590;28;19927;-93
2023/07/24 01:03:12;;;;;;;0.45;0.45;;;16.10;99.90;;;;;;5093228;28;20076;-93
2023/07/24 01:05:41;;;;;;;1.30;1.20;;;16.00;99.90;;;;;;5093677;28;20056;-94
2023/07/24 01:08:07;;;;;;;1.48;0.93;;;16.00;99.90;;;;;;5093216;28;20123;-93
2023/07/24 01:10:33;;;;;;;1.02;1.02;;;16.00;99.90;;;;;;5076296;28;20101;-93
2023/07/24 01:13:07;;;;;;;1.27;0.60;;;16.10;99.90;;;;;;5093489;28;20425;-93
2023/07/24 01:15:40;;;;;;;0.98;0.98;;;16.10;99.90;;;;;;5076748;28;20134;-93
2023/07/24 01:18:11;;;;;;;1.17;0.68;;;16.10;99.90;;;;;;5092984;28;20127;-93
2023/07/24 01:20:39;;;;;;;0.63;0.63;;;16.10;99.90;;;;;;5075392;28;20039;-92
2023/07/24 01:23:23;;;;;;;0.85;0.85;;;16.10;99.90;;;;;;5075955;28;20101;-93
2023/07/24 01:26:00;;;;;;;2.90;0.90;;;16.20;99.90;;;;;;5092867;28;20053;-93
2023/07/24 01:28:26;;;;;;;;;;;16.20;99.90;;;;;;5076758;28;20080;-92
2023/07/24 01:30:52;;;;;;;1.00;0.60;;;16.30;99.90;;;;;;5056277;28;20433;-93
2023/07/24 01:33:19;;;;;;;0.68;0.68;;;16.30;99.90;;;;;;5055636;28;20045;-92
2023/07/24 01:35:45;;;;;;;1.27;1.17;;;16.30;99.90;;;;;;5055785;28;20135;-92
2023/07/24 01:38:13;;;;;;;1.63;1.20;;;16.30;99.90;;;;;;5055477;28;20063;-93
2023/07/24 01:40:40;;;;;;;1.63;1.00;;;16.40;99.90;;;;;;5055365;28;20041;-93
2023/07/24 01:43:07;;;;;;;1.63;1.20;;;16.40;99.90;;;;;;5072931;28;20044;-93
2023/07/24 01:45:35;;;;;;;0.65;0.65;;;16.40;99.90;;;;;;5089130;28;20067;-93
2023/07/24 01:48:05;;;;;;;0.85;0.82;;;16.40;99.90;;;;;;5073377;28;20564;-94
2023/07/24 01:50:31;;;;;;;1.52;1.42;;;16.40;99.90;;;;;;5038777;28;20048;-93
2023/07/24 01:52:57;;;;;;;1.00;0.70;;;16.40;99.90;;;;;;5056107;28;20101;-93
2023/07/24 01:55:23;;;;;;;1.08;0.98;;;16.40;99.90;;;;;;5055563;28;20057;-94
2023/07/24 01:57:48;;;;;;;1.17;1.00;;;16.30;99.90;;;;;;5055924;28;20047;-94
2023/07/24 02:00:14;;;;;;;0.53;0.53;;;16.30;99.90;;;;;;5049796;28;20709;-95
2023/07/24 02:02:40;;;;;;;1.58;0.98;;;16.30;99.90;;;;;;5076033;28;20052;-94
2023/07/24 02:05:06;;;;;;;0.90;0.80;;;16.30;99.90;;;;;;5076081;28;20185;-93
2023/07/24 02:07:31;;;;;;;0.80;0.80;;;16.30;99.90;;;;;;5058660;28;20298;-94
2023/07/24 02:09:57;;;;;;;0.68;0.40;;;16.20;99.90;;;;;;5092565;28;20464;-94
2023/07/24 02:12:23;;;;;;;0.90;0.75;;;16.20;99.90;;;;;;5075230;28;20052;-93
2023/07/24 02:14:51;;;;;;;1.05;0.95;;;16.20;99.90;;;;;;5075277;28;20144;-94
2023/07/24 02:17:17;;;;;;;3.60;1.05;;;16.20;99.90;;;;;;5059001;28;20051;-93
2023/07/24 02:19:43;;;;;;;1.33;0.85;;;16.20;99.90;;;;;;5075990;28;20040;-94
2023/07/24 02:22:09;;;;;;;0.65;0.65;;;16.20;99.90;;;;;;5075627;28;20047;-94
2023/07/24 02:24:35;;;;;;;1.23;0.60;;;16.20;99.90;;;;;;5058344;28;20036;-94
2023/07/24 02:27:03;;;;;;;1.25;0.80;;;16.20;99.90;;;;;;5058996;28;20143;-93
2023/07/24 02:29:29;;;;;;;1.30;0.70;;;16.20;99.90;;;;;;5071475;28;20048;-94
2023/07/24 02:31:54;;;;;;;0.90;0.90;;;16.20;99.90;;;;;;5073038;28;20437;-94
2023/07/24 02:34:26;;;;;;;0.80;0.47;;;16.20;99.90;;;;;;5058680;28;20079;-94
2023/07/24 02:36:55;;;;;;;1.92;1.30;;;16.20;99.90;;;;;;5059603;28;20052;-93
2023/07/24 02:39:21;;;;;;;0.63;0.50;;;15.50;99.90;;;;;;5075234;28;20044;-93
2023/07/24 02:41:48;;;;;;;0.95;0.88;;;16.20;99.90;;;;;;5076173;28;20128;-94
2023/07/24 02:44:14;;;;;;;1.70;0.93;;;16.20;99.90;;;;;;5043902;28;20386;-94
2023/07/24 02:46:39;;;;;;;0.85;0.80;;;16.10;99.90;;;;;;5029273;28;20139;-94
2023/07/24 02:49:05;;;;;;;2.13;1.20;;;16.10;99.90;;;;;;5062660;28;20135;-94
2023/07/24 02:51:31;;;;;;;1.40;1.25;;;16.10;99.90;;;;;;5045682;28;20055;-94
2023/07/24 02:53:57;;;;;;;1.98;1.25;;;16.10;99.90;;;;;;5062880;28;20059;-94
2023/07/24 02:56:22;;;;;;;1.15;0.75;;;16.10;99.90;;;;;;5062056;28;20036;-94
2023/07/24 02:58:48;;;;;;;3.80;1.33;;;16.00;99.90;;;;;;5086325;28;20044;-94
2023/07/24 03:01:17;;;;;;;1.23;1.13;;;16.00;99.90;;;;;;5096397;28;20505;-94
2023/07/24 03:03:43;;;;;;;1.02;0.85;;;16.00;99.90;;;;;;5046233;28;20040;-94
2023/07/24 03:06:08;;;;;;;0.90;0.90;;;16.00;99.90;;;;;;5045781;28;20131;-94
2023/07/24 03:08:34;;;;;;;1.10;0.80;;;15.90;99.90;;;;;;5061938;28;20293;-93
2023/07/24 03:11:02;;;;;;;2.13;1.05;;;15.90;99.90;;;;;;5061405;28;20056;-94
2023/07/24 03:13:28;;;;;;;1.35;0.75;;;15.90;99.90;;;;;;5061678;28;20471;-94
2023/07/24 03:15:55;;;;;;;0.70;0.65;;;15.90;99.90;;;;;;5078872;28;20046;-93
2023/07/24 03:18:21;;;;;;;0.90;0.75;;;15.90;99.90;;;;;;5078006;28;20048;-93
2023/07/24 03:20:47;;;;;;;0.50;0.50;;;15.90;99.90;;;;;;5078426;28;20051;-93
2023/07/24 03:23:13;;;;;;;1.50;1.17;;;15.90;99.90;;;;;;5078491;28;20043;-94
2023/07/24 03:25:39;;;;;;;0.47;0.40;;;15.90;99.90;;;;;;5061800;28;20448;-93
2023/07/24 03:28:04;;;;;;;0.90;0.90;;;15.90;99.90;;;;;;5062021;28;20466;-93
2023/07/24 03:30:30;;;;;;;0.80;0.77;;;15.90;99.90;;;;;;5093810;28;20304;-93
2023/07/24 03:32:56;;;;;;;0.98;0.50;;;15.90;99.90;;;;;;5081793;28;20382;-93
2023/07/24 03:35:22;;;;;;;1.02;0.85;;;15.90;99.90;;;;;;5048384;28;20496;-93
2023/07/24 03:37:48;;;;;;;0.87;0.70;;;15.90;99.90;;;;;;5098633;28;20048;-94
2023/07/24 03:40:13;;;;;;;0.77;0.70;;;15.90;99.90;;;;;;5065118;28;20055;-93
2023/07/24 03:42:39;;;;;;;0.82;0.73;;;14.80;99.90;;;;;;5080598;28;20083;-94
2023/07/24 03:45:08;;;;;;;0.73;0.70;;;15.20;99.90;;;;;;5081016;28;20401;-94
2023/07/24 03:47:43;;;;;;;0.93;0.80;;;15.90;99.90;;;;;;5098358;28;20089;-93
2023/07/24 03:50:12;;;;;;;0.85;0.85;;;15.90;99.90;;;;;;5081733;28;20051;-94
2023/07/24 03:52:37;;;;;;;1.17;0.73;;;15.90;99.90;;;;;;5097765;28;20044;-94
2023/07/24 03:55:04;;;;;;;2.35;0.70;;;15.90;99.90;;;;;;5097831;28;20051;-95
2023/07/24 03:57:54;;;;;;;0.60;0.55;;;15.90;99.90;;;;;;5064555;28;20043;-94
2023/07/24 04:00:25;;;;;;;0.75;0.75;;;15.90;99.90;;;;;;5091097;28;20494;-94
2023/07/24 04:02:56;;;;;;;1.08;1.08;;;15.90;99.90;;;;;;5095544;28;20044;-93
2023/07/24 04:05:22;;;;;;;0.65;0.60;;;15.90;99.90;;;;;;5061397;28;20078;-93
2023/07/24 04:07:53;;;;;;;1.08;1.00;;;15.90;99.90;;;;;;5077542;28;20044;-93
2023/07/24 04:10:19;;;;;;;0.75;0.73;;;15.90;99.90;;;;;;5060973;28;20461;-93
2023/07/24 04:12:54;;;;;;;1.20;1.00;;;15.90;99.90;;;;;;5060464;28;20048;-93
2023/07/24 04:15:20;;;;;;;0.50;0.38;;;15.90;99.90;;;;;;5045142;28;20508;-92
2023/07/24 04:17:48;;;;;;;1.10;0.70;;;16.00;99.90;;;;;;5060398;28;20047;-93
2023/07/24 04:20:19;;;;;;;1.48;0.80;;;15.90;99.90;;;;;;5061282;28;20201;-93
2023/07/24 04:22:45;;;;;;;0.52;0.52;;;15.90;99.90;;;;;;5060148;28;20086;-93
2023/07/24 04:25:23;;;;;;;0.75;0.50;;;15.90;99.90;;;;;;5060428;28;20083;-93
2023/07/24 04:27:59;;;;;;;0.98;0.90;;;15.90;99.90;;;;;;5077038;28;20129;-93
2023/07/24 04:30:37;;;;;;;;;;;;;;;;;;;;;
2023/07/24 04:33:03;;;;;;;1.13;0.73;;;15.90;99.90;;;;;;5077185;28;20055;-92
2023/07/24 04:35:31;;;;;;;1.00;1.00;;;15.90;99.90;;;;;;5076300;28;20047;-94
2023/07/24 04:38:02;;;;;;;0.80;0.80;;;16.50;99.90;;;;;;5060542;28;20529;-92
2023/07/24 04:40:32;;;;;;;0.90;0.90;;;15.90;99.90;;;;;;5060175;28;20283;-92
2023/07/24 04:43:01;;;;;;;1.13;0.85;;;15.90;99.90;;;;;;5059863;28;20174;-93
2023/07/24 04:45:32;;;;;;;0.88;0.70;;;15.00;99.90;;;;;;5076501;28;20051;-93
2023/07/24 04:48:00;;;;;;;1.50;1.13;;;15.90;99.90;;;;;;5043975;28;20457;-94
2023/07/24 04:50:30;;;;;;;0.98;0.98;;;15.50;99.90;;;;;;5060229;28;20063;-94
2023/07/24 04:53:11;;;;;;;0.98;0.98;;;16.00;99.90;;;;;;5060709;28;20073;-93
2023/07/24 04:55:39;;;;;;;1.70;0.98;;;15.90;99.90;;;;;;5076117;28;20424;-94
2023/07/24 04:58:05;;;;;;;1.02;0.95;;;15.90;99.90;;;;;;5060188;28;20131;-93
2023/07/24 05:00:38;;;;;;;0.77;0.68;;;16.00;99.90;;;;;;5044294;28;20501;-93
2023/07/24 05:03:11;;;;;;;0.85;0.60;;;15.90;99.90;;;;;;5063839;28;20046;-93
2023/07/24 05:05:42;;;;;;;1.15;1.08;;;15.90;99.90;;;;;;5079897;28;20146;-92
2023/07/24 05:08:10;;;;;;;0.90;0.88;;;16.00;99.90;;;;;;5097809;28;20046;-93
2023/07/24 05:10:36;;;;;;;1.10;1.00;;;15.30;99.90;;;;;;5079587;28;20046;-94
2023/07/24 05:13:05;;;;;;;0.70;0.65;;;16.00;99.90;;;;;;5096936;28;20047;-93
2023/07/24 05:15:37;;;;;;;1.90;0.80;;;16.00;99.90;;;;;;5096646;28;20489;-94
2023/07/24 05:18:05;;;;;;;0.68;0.68;;;15.60;99.90;;;;;;5079789;28;20047;-94
2023/07/24 05:20:31;;;;;;;0.85;0.70;;;16.00;99.90;;;;;;5079244;28;20054;-93
2023/07/24 05:22:57;;;;;;;1.25;0.98;;;14.90;99.90;;;;;;5062624;28;20043;-93
2023/07/24 05:25:23;;;;;;;0.80;0.80;;;15.20;99.90;;;;;;5079894;28;20134;-93
2023/07/24 05:27:53;;;;;;;1.00;0.60;;;16.00;99.90;;;;;;5061321;28;20039;-94
2023/07/24 05:30:21;;;;;;;1.08;0.82;;;16.10;99.90;;;;;;5060003;28;20052;-94
2023/07/24 05:32:52;;;;;;;0.68;0.68;;;16.00;99.90;;;;;;5059201;28;20502;-93
2023/07/24 05:35:24;;;;;;;0.60;0.57;;;16.10;99.90;;;;;;5059714;28;20093;-94
2023/07/24 05:37:53;;;;;;;1.30;0.90;;;16.10;99.90;;;;;;5058725;28;20436;-94
2023/07/24 05:40:21;;;;;;;1.27;1.05;;;16.10;99.90;;;;;;5026902;28;20075;-94
2023/07/24 05:42:47;;;;;;;1.10;1.00;;;16.10;99.90;;;;;;5059414;28;20101;-93
2023/07/24 05:45:18;;;;;;;0.98;0.70;;;16.20;99.90;;;;;;5075541;28;20082;-93
2023/07/24 05:47:57;;;;;;;;;;;;;;;;;;;;;
2023/07/24 05:50:26;;;;;;;1.05;0.95;;;16.20;99.90;;;;;;5075844;28;20044;-94
2023/07/24 05:52:54;;;;;;;1.40;1.02;;;16.30;99.90;;;;;;5058805;28;20139;-94
2023/07/24 05:55:20;;;;;;;1.55;0.80;;;16.30;99.90;;;;;;5059092;28;20079;-94
2023/07/24 05:57:55;;;;;;;;;;;;;;;;;;;;;
2023/07/24 06:00:24;;;;;;;1.20;1.10;;;16.30;99.90;;;;;;5075902;28;20535;-94
2023/07/24 06:02:49;;;;;;;1.30;1.15;;;16.30;99.90;;;;;;5075128;28;20043;-93
2023/07/24 06:05:21;;;;;;;0.70;0.60;;;16.30;99.90;;;;;;5075685;28;20134;-93
2023/07/24 06:07:49;;;;;;;1.27;0.70;;;16.30;99.90;;;;;;5074843;28;20094;-93
2023/07/24 06:10:15;;;;;;;0.68;0.68;;;16.30;99.90;;;;;;5075892;28;20101;-93
2023/07/24 06:13:04;;;;;;;1.08;1.08;;;16.30;99.90;;;;;;5075232;28;20056;-94
2023/07/24 06:15:31;;;;;;;0.47;0.47;;;16.30;99.90;;;;;;5061501;28;20126;-94
2023/07/24 06:18:00;;;;;;;1.73;0.98;;;16.40;99.90;;;;;;5058961;28;20044;-94
2023/07/24 06:20:37;;;;;;;1.45;0.88;;;16.40;99.90;;;;;;5058956;28;20040;-94
2023/07/24 06:23:03;;;;;;;0.45;0.45;;;16.40;99.90;;;;;;5061486;28;20046;-94
2023/07/24 06:25:30;;;;;;;;;;;16.40;99.90;;;;;;5093526;28;20048;-90
2023/07/24 06:27:56;;;;;;;0.65;0.65;;;16.40;99.90;;;;;;5060372;28;19920;-88
2023/07/24 06:30:22;;;;;;;1.48;1.17;;;16.50;99.90;;;;;;5074747;28;20046;-88
2023/07/24 06:32:47;;;;;;;1.42;0.77;;;16.50;99.90;;;;;;5064732;28;20048;-89
2023/07/24 06:35:13;;;;;;;0.90;0.70;;;16.60;99.90;;;;;;5092026;28;20048;-88
2023/07/24 06:37:39;;;;;;;0.85;0.73;;;16.60;99.90;;;;;;5093961;28;20043;-88
2023/07/24 06:40:07;;;;;;;1.10;0.85;;;16.60;99.90;;;;;;5112555;28;20047;-88
2023/07/24 06:42:32;;;;;;;1.17;0.82;;;16.70;99.90;;;;;;5093225;28;20040;-84
2023/07/24 06:44:58;;;;;;;0.60;0.60;;;16.70;99.90;;;;;;5073837;28;20056;-84
2023/07/24 06:47:24;;;;;;;1.00;0.88;;;16.80;99.90;;;;;;5065888;28;20051;-84
2023/07/24 06:49:50;;;;;;;0.98;0.98;;;16.80;99.90;;;;;;5112470;28;20048;-88
2023/07/24 06:52:16;;;;;;;1.23;0.73;;;16.80;99.90;;;;;;5078232;28;20061;-90
2023/07/24 06:54:41;;;;;;;0.98;0.63;;;16.90;99.90;;;;;;5113025;28;20046;-86
2023/07/24 06:57:07;;;;;;;0.93;0.80;;;16.90;99.90;;;;;;5094637;28;20105;-88
2023/07/24 06:59:33;;;;;;;1.40;0.93;;;16.90;99.90;;;;;;5078324;28;20055;-87
2023/07/24 07:01:59;;;;;;;1.75;1.17;;;16.90;99.90;;;;;;5078282;28;20114;-90
2023/07/24 07:04:24;;;;;;;0.68;0.65;;;16.90;99.90;;;;;;5080253;28;20093;-90
2023/07/24 07:06:50;;;;;;;0.90;0.90;;;17.00;99.90;;;;;;5090998;28;20046;-90
2023/07/24 07:09:16;;;;;;;1.02;0.80;;;17.00;99.90;;;;;;5077765;28;20051;-91
2023/07/24 07:11:43;;;;;;;1.23;1.13;;;17.00;99.90;;;;;;5046085;28;20398;-90
2023/07/24 07:14:09;;;;;;;0.98;0.93;;;17.00;99.90;;;;;;5025249;28;20290;-89
2023/07/24 07:16:35;;;;;;;1.40;0.80;;;17.00;99.90;;;;;;5107923;28;20051;-90
2023/07/24 07:19:01;;;;;;;0.82;0.82;;;17.10;99.90;;;;;;5079338;28;20051;-90
2023/07/24 07:21:26;;;;;;;1.27;0.90;;;17.10;99.90;;;;;;5076794;28;20073;-90
2023/07/24 07:23:52;;;;;;;0.55;0.50;;;17.20;99.90;;;;;;5077975;28;20372;-90
2023/07/24 07:26:18;;;;;;;0.68;0.68;;;17.20;99.90;;;;;;5065952;28;20113;-90
2023/07/24 07:28:44;;;;;;;1.20;0.90;;;17.30;99.90;;;;;;5098650;28;20048;-90
2023/07/24 07:31:10;;;;;;;0.82;0.70;;;17.40;99.90;;;;;;5064599;28;20058;-90
2023/07/24 07:33:36;;;;;;;0.65;0.65;;;17.50;99.90;;;;;;5088629;28;20109;-89
2023/07/24 07:36:03;;;;;;;0.55;0.55;;;17.60;99.90;;;;;;5070691;28;20040;-91
2023/07/24 07:38:29;;;;;;;0.68;0.68;;;17.60;99.90;;;;;;5080321;28;20055;-91
2023/07/24 07:40:55;;;;;;;1.48;1.05;;;17.60;99.90;;;;;;5097670;28;20044;-89
2023/07/24 07:43:21;;;;;;;0.88;0.77;;;17.70;99.90;;;;;;5116069;28;20070;-89
2023/07/24 07:45:47;;;;;;;1.27;0.95;;;17.70;99.90;;;;;;5097739;28;20051;-88
2023/07/24 07:48:12;;;;;;;1.25;0.85;;;17.80;99.90;;;;;;5097604;28;20116;-89
2023/07/24 07:50:38;;;;;;;0.70;0.70;;;17.80;99.90;;;;;;5060905;28;20051;-87
2023/07/24 07:53:04;;;;;;;1.10;0.95;;;17.80;99.90;;;;;;5069126;28;20093;-88
2023/07/24 07:55:30;;;;;;;1.45;1.17;;;17.80;99.90;;;;;;5077741;28;20130;-84
2023/07/24 07:58:01;;;;;;;1.42;1.05;;;17.80;99.90;;;;;;5076944;28;20044;-87
2023/07/24 08:00:26;;;;;;;1.08;0.98;;;17.90;99.90;;;;;;5043974;28;20138;-87
2023/07/24 08:02:52;;;;;;;0.70;0.70;;;17.90;99.90;;;;;;5087051;28;20134;-91
2023/07/24 08:05:18;;;;;;;1.00;0.85;;;17.90;99.90;;;;;;5077070;28;20040;-88
2023/07/24 08:07:44;;;;;;;0.80;0.80;;;18.00;99.90;;;;;;5059876;28;20047;-88
2023/07/24 08:10:09;;;;;;;1.05;0.85;;;18.00;99.90;;;;;;5070074;28;20048;-87
2023/07/24 08:12:35;;;;;;;3.30;1.30;;;18.00;99.90;;;;;;5059488;28;20099;-88
2023/07/24 08:15:01;;;;;;;0.98;0.90;;;18.00;99.90;;;;;;5086204;28;20551;-83
2023/07/24 08:17:27;;;;;;;0.90;0.90;;;18.10;99.90;;;;;;5114382;28;20044;-90
2023/07/24 08:19:52;;;;;;;1.23;1.13;;;18.20;99.90;;;;;;5080596;28;20044;-88
2023/07/24 08:22:19;;;;;;;0.98;0.88;;;18.30;99.90;;;;;;5063316;28;20039;-88
2023/07/24 08:24:45;;;;;;;0.93;0.85;;;18.50;99.90;;;;;;5063796;28;20047;-86
2023/07/24 08:27:11;;;;;;;1.08;0.90;;;18.50;99.90;;;;;;5076506;28;20048;-86
2023/07/24 08:29:38;;;;;;;1.63;1.05;;;18.50;99.90;;;;;;5066056;28;20524;-86
2023/07/24 08:32:05;;;;;;;1.08;0.60;;;18.50;99.90;;;;;;5080200;28;20089;-86
2023/07/24 08:34:30;;;;;;;0.80;0.80;;;18.50;99.90;;;;;;5097430;28;20439;-86
2023/07/24 08:36:56;;;;;;;1.08;1.02;;;18.50;99.90;;;;;;5079427;28;20051;-85
2023/07/24 08:39:24;;;;;;;1.42;1.30;;;18.50;99.90;;;;;;5066256;28;20130;-86
2023/07/24 08:41:50;;;;;;;1.42;0.88;;;18.50;99.90;;;;;;5076678;28;20040;-87
2023/07/24 08:44:16;;;;;;;0.88;0.63;;;18.60;99.90;;;;;;5076107;28;20501;-87
2023/07/24 08:46:45;;;;;;;1.77;0.70;;;18.60;99.90;;;;;;5059403;28;20060;-87
2023/07/24 08:49:14;;;;;;;0.88;0.88;;;18.70;99.90;;;;;;5076134;28;20048;-87
2023/07/24 08:51:41;;;;;;;1.10;1.00;;;18.70;99.90;;;;;;5060242;28;20046;-87
2023/07/24 08:54:08;;;;;;;1.13;0.70;;;18.90;99.90;;;;;;5068411;28;20127;-88
2023/07/24 08:56:34;;;;;;;;;;;19.00;99.90;;;;;;5097076;28;20050;-88
2023/07/24 08:58:59;;;;;;;1.10;1.00;;;19.00;99.90;;;;;;5077680;28;19919;-93
2023/07/24 09:01:25;;;;;;;1.05;0.90;;;19.10;99.90;;;;;;5085184;28;20043;-87
2023/07/24 09:03:56;;;;;;;1.30;0.82;;;19.10;99.90;;;;;;5054115;28;20069;-88
2023/07/24 09:06:22;;;;;;;0.90;0.90;;;19.10;99.90;;;;;;5092805;28;20222;-87
2023/07/24 09:08:48;;;;;;;0.70;0.50;;;19.10;99.90;;;;;;5063434;28;20044;-88
2023/07/24 09:11:17;;;;;;;1.30;0.70;;;19.10;99.90;;;;;;5062777;28;20111;-87
2023/07/24 09:13:45;;;;;;;0.60;0.60;;;19.10;99.90;;;;;;5078338;28;20039;-86
2023/07/24 09:16:22;;;;;;;0.90;0.77;;;19.10;99.90;;;;;;5089652;28;20047;-84
2023/07/24 09:18:51;;;;;;;0.85;0.70;;;19.20;99.90;;;;;;5108641;28;20039;-85
2023/07/24 09:21:30;;;;;;;1.00;0.70;;;19.20;99.90;;;;;;5084519;28;20055;-92
2023/07/24 09:23:55;;;;;;;0.70;0.70;;;19.20;99.90;;;;;;5068302;28;20061;-84
2023/07/24 09:26:38;;;;;;;1.25;0.80;;;19.20;99.90;;;;;;5070155;28;20474;-94
2023/07/24 09:29:06;;;;;;;0.75;0.75;;;19.30;99.90;;;;;;5076834;28;20036;-89
2023/07/24 09:31:53;;;;;;;1.73;0.90;;;19.30;99.90;;;;;;5061984;28;20051;-93
2023/07/24 09:34:19;;;;;;;0.82;0.82;;;18.70;99.90;;;;;;5080290;28;20507;-86
2023/07/24 09:36:50;;;;;;;0.95;0.73;;;19.50;99.90;;;;;;5085197;28;20082;-90
2023/07/24 09:39:23;;;;;;;0.70;0.52;;;19.60;99.90;;;;;;5073400;28;20134;-93
2023/07/24 09:44:47;;;;;;;0.75;0.65;;;19.60;99.90;;;;;;5082802;28;20375;-89
2023/07/24 09:47:13;;;;;;;0.98;0.88;;;19.50;99.90;;;;;;5065298;28;20169;-86
2023/07/24 09:49:42;;;;;;;0.95;0.95;;;19.50;99.90;;;;;;5090332;28;20126;-91
2023/07/24 09:52:13;;;;;;;1.15;0.68;;;19.50;99.90;;;;;;5069198;28;20039;-90
2023/07/24 09:55:10;;;;;;;0.70;0.70;;;19.70;99.90;;;;;;5074538;28;20071;-95
2023/07/24 09:57:38;;;;;;;0.85;0.85;;;19.90;99.90;;;;;;5081623;28;20381;-92
2023/07/24 10:00:07;;;;;;;0.50;0.50;;;20.00;99.90;;;;;;5069252;28;20134;-90
2023/07/24 10:02:33;;;;;;;1.42;1.00;;;20.10;99.90;;;;;;5077545;28;20589;-87
2023/07/24 10:05:00;;;;;;;1.50;1.05;;;20.30;99.90;;;;;;5067854;28;20092;-87
2023/07/24 10:07:29;;;;;;;0.73;0.73;;;20.50;99.90;;;;;;5070999;28;20044;-90
2023/07/24 10:10:00;;;;;;;1.40;1.33;;;20.60;99.90;;;;;;5095392;28;20043;-88
2023/07/24 10:12:30;;;;;;;0.98;0.63;;;20.70;99.90;;;;;;5093454;28;20042;-89
2023/07/24 10:14:56;;;;;;;0.63;0.63;;;20.70;99.90;;;;;;5085779;28;20054;-84
2023/07/24 10:17:38;;;;;;;0.73;0.73;;;20.70;99.90;;;;;;5078776;28;20044;-87
2023/07/24 10:20:06;;;;;;;0.50;0.50;;;20.90;99.90;;;;;;5076016;28;20482;-86
2023/07/24 10:22:32;;;;;;;0.80;0.60;;;21.00;99.90;;;;;;5075507;28;20044;-86
2023/07/24 10:24:57;;;;;;;0.57;0.57;;;21.00;99.90;;;;;;5045996;28;20044;-85
2023/07/24 10:27:24;;;;;;;1.25;0.63;;;21.10;99.90;;;;;;5095059;28;20047;-86
2023/07/24 10:30:04;;;;;;;0.63;0.52;;;21.10;99.90;;;;;;5078280;28;20053;-87
2023/07/24 10:32:30;;;;;;;1.27;1.17;;;21.00;99.90;;;;;;5068186;28;20047;-86
2023/07/24 10:35:09;;;;;;;1.48;0.80;;;20.90;99.90;;;;;;5090183;28;20044;-87
2023/07/24 10:37:41;;;;;;;0.90;0.90;;;20.80;99.90;;;;;;5079858;28;20464;-86
2023/07/24 10:40:19;;;;;;;0.90;0.47;;;20.90;99.90;;;;;;5101872;28;20056;-86
2023/07/24 10:42:45;;;;;;;0.45;0.45;;;21.00;99.90;;;;;;5107250;28;20048;-82
2023/07/24 10:45:11;;;;;;;0.73;0.70;;;21.10;99.90;;;;;;5071478;28;20070;-84
2023/07/24 10:47:37;;;;;;;1.05;0.90;;;21.20;99.90;;;;;;5101458;28;20044;-84
2023/07/24 10:50:03;;;;;;;1.35;0.85;;;21.30;99.90;;;;;;5084784;28;20482;-85
2023/07/24 10:52:32;;;;;;;0.63;0.63;;;21.40;99.90;;;;;;5084218;28;20048;-85
2023/07/24 10:55:05;;;;;;;1.00;0.70;;;21.50;99.90;;;;;;5086307;28;20051;-83
2023/07/24 10:57:30;;;;;;;0.57;0.50;;;21.70;99.90;;;;;;5091142;28;20043;-85
2023/07/24 10:59:56;;;;;;;0.70;0.70;;;21.70;99.90;;;;;;5070338;28;20040;-85
2023/07/24 11:02:22;;;;;;;0.40;0.40;;;21.70;99.90;;;;;;5088455;28;20050;-85
2023/07/24 11:04:48;;;;;;;1.08;1.08;;;21.70;99.90;;;;;;5068580;28;20074;-86
2023/07/24 11:07:15;;;;;;;0.85;0.63;;;21.60;99.90;;;;;;5087083;28;20120;-85
2023/07/24 11:09:41;;;;;;;0.45;0.40;;;21.50;99.90;;;;;;5071365;28;20036;-85
2023/07/24 11:12:16;;;;;;;0.60;0.50;;;21.40;99.90;;;;;;5088345;28;20063;-85
2023/07/24 11:14:49;;;;;;;0.40;0.40;;;21.30;99.90;;;;;;5071496;28;20047;-84
2023/07/24 11:17:15;;;;;;;0.47;0.45;;;21.20;99.90;;;;;;5073895;28;20504;-85
2023/07/24 11:19:44;;;;;;;0.73;0.68;;;21.00;99.90;;;;;;5069749;28;20070;-85
2023/07/24 11:22:10;;;;;;;1.08;0.70;;;21.00;99.90;;;;;;5060025;28;20475;-85
2023/07/24 11:24:48;;;;;;;1.23;0.70;;;20.90;99.90;;;;;;5070648;28;20032;-85
2023/07/24 11:27:15;;;;;;;0.93;0.85;;;20.70;99.90;;;;;;5065592;28;20048;-85
2023/07/24 11:29:41;;;;;;;0.75;0.73;;;20.70;99.90;;;;;;5063576;28;20086;-84
2023/07/24 11:32:07;;;;;;;0.52;0.52;;;20.60;99.90;;;;;;5089003;28;20043;-86
2023/07/24 11:34:34;;;;;;;1.40;1.02;;;20.50;99.90;;;;;;5074415;28;20044;-85
2023/07/24 11:37:00;;;;;;;1.38;0.90;;;20.50;99.90;;;;;;5083427;28;20046;-85
2023/07/24 11:39:26;;;;;;;;;;;20.50;99.90;;;;;;5066874;28;20082;-85
2023/07/24 11:41:55;;;;;;;0.90;0.63;;;20.50;99.90;;;;;;5087533;28;19959;-85
2023/07/24 11:44:28;;;;;;;0.68;0.68;;;20.50;99.90;;;;;;5070812;28;20040;-91
2023/07/24 11:47:06;;;;;;;1.13;1.13;;;20.50;99.90;;;;;;5061761;28;20131;-92
2023/07/24 11:49:47;;;;;;;0.57;0.57;;;19.40;99.90;;;;;;5082375;28;20440;-92
2023/07/24 11:52:23;;;;;;;;;;;;;;;;;;;;;
2023/07/24 11:55:04;;;;;;;0.95;0.55;;;20.40;99.90;;;;;;5081035;28;20370;-88
2023/07/24 11:57:34;;;;;;;0.70;0.70;;;20.40;99.90;;;;;;5071520;28;20044;-87
2023/07/24 12:00:09;;;;;;;1.05;0.90;;;20.40;99.90;;;;;;5091039;28;20104;-90
2023/07/24 12:02:40;;;;;;;0.70;0.70;;;20.60;99.90;;;;;;5080969;28;20047;-90
2023/07/24 12:05:12;;;;;;;0.90;0.50;;;21.40;99.90;;;;;;5097318;28;20048;-90
2023/07/24 12:07:51;;;;;;;0.73;0.70;;;20.80;99.90;;;;;;5080554;28;20050;-90
2023/07/24 12:10:29;;;;;;;1.02;0.93;;;21.00;99.90;;;;;;5090677;28;20112;-90
2023/07/24 12:13:00;;;;;;;1.02;0.85;;;20.40;99.90;;;;;;5077485;28;20543;-89
2023/07/24 12:15:38;;;;;;;;;;;;;;;;;;;;;
2023/07/24 12:18:09;;;;;;;0.70;0.60;;;21.50;99.90;;;;;;5077034;28;20048;-90
2023/07/24 12:20:40;;;;;;;0.70;0.70;;;21.70;99.90;;;;;;5060376;28;20453;-90
2023/07/24 12:23:23;;;;;;;1.08;0.60;;;21.90;99.90;;;;;;5080660;28;20094;-91
2023/07/24 12:25:58;;;;;;;0.60;0.60;;;22.00;99.90;;;;;;5040593;28;20140;-89
2023/07/24 12:28:27;;;;;;;0.70;0.60;;;22.00;99.90;;;;;;5081082;28;20378;-89
2023/07/24 12:31:05;;;;;;;1.02;1.02;;;20.90;99.90;;;;;;5084608;28;20055;-90
2023/07/24 12:33:37;;;;;;;0.60;0.52;;;21.90;99.90;;;;;;5076401;28;20521;-89
2023/07/24 12:36:19;;;;;;;1.05;0.95;;;21.90;99.90;;;;;;5060424;28;20048;-90
2023/07/24 12:38:54;;;;;;;0.88;0.88;;;21.50;99.90;;;;;;5075960;28;20055;-89
2023/07/24 12:41:50;;;;;;;;;;;;;;;;;;;;;
2023/07/24 12:44:30;;;;;;;0.60;0.60;;;23.00;99.90;;;;;;5076700;28;20394;-88
2023/07/24 12:47:01;;;;;;;0.75;0.70;;;22.30;99.90;;;;;;5043274;28;20055;-89
2023/07/24 12:52:16;;;;;;;0.80;0.73;;;22.30;99.90;;;;;;5084584;28;20047;-88
2023/07/24 12:57:38;;;;;;;1.55;0.60;;;21.70;99.90;;;;;;5097256;28;20117;-89
2023/07/24 13:00:08;;;;;;;0.68;0.57;;;21.40;99.90;;;;;;5097397;28;20052;-91
2023/07/24 13:02:39;;;;;;;1.90;0.82;;;21.10;99.90;;;;;;5086963;28;20048;-93
2023/07/24 13:05:08;;;;;;;0.60;0.60;;;20.80;99.90;;;;;;5076481;28;20398;-91
2023/07/24 13:07:36;;;;;;;1.65;0.80;;;20.60;99.90;;;;;;5060531;28;20051;-91
2023/07/24 13:10:23;;;;;;;;;;;;;;;;;;;;;
2023/07/24 13:13:01;;;;;;;1.90;0.82;;;20.50;99.90;;;;;;5062153;28;20497;-89
2023/07/24 13:15:36;;;;;;;;;;;;;;;;;;;;;